Time;durP1;ratioP1;P1;durP2;ratioP2;P2;SDS_P1;SDS_P2;PMS_P1;PMS_P2;Temp;Humidity;BMP_temperature;BMP_pressure;BME280_temperature;BME280_humidity;BME280_pressure;Samples;Min_cycle;Max_cycle;Signal;HPM_P1;HPM_P2
2022/06/22 00:02:18;;;;;;;14.60;7.07;;;;;;;;;;5114694;28;20519;-62
2022/06/22 00:04:46;;;;;;;10.30;6.30;;;;;;;;;;5114694;28;20092;-62
2022/06/22 00:07:18;;;;;;;9.93;7.03;;;;;;;;;;5114784;28;20489;-62
2022/06/22 00:09:44;;;;;;;9.93;6.82;;;;;;;;;;5114609;28;20085;-62
2022/06/22 00:12:37;;;;;;;9.57;6.82;;;;;;;;;;5114487;28;20553;-62
2022/06/22 00:15:04;;;;;;;8.75;6.53;;;;;;;;;;5113221;28;20051;-61
2022/06/22 00:17:39;;;;;;;11.73;6.97;;;;;;;;;;5114539;28;20040;-62
2022/06/22 00:20:18;;;;;;;9.15;6.97;;;;;;;;;;5114067;28;20576;-61
2022/06/22 00:22:47;;;;;;;8.00;6.22;;;;;;;;;;5114656;28;20043;-62
2022/06/22 00:25:33;;;;;;;8.77;5.95;;;;;;;;;;5114439;28;20115;-62
2022/06/22 00:28:18;;;;;;;7.68;5.57;;;;;;;;;;5110275;28;20047;-62
2022/06/22 00:30:47;;;;;;;6.97;5.28;;;;;;;;;;5114134;28;20398;-62
2022/06/22 00:33:20;;;;;;;10.18;6.10;;;;;;;;;;5114390;28;20055;-62
2022/06/22 00:36:01;;;;;;;9.50;6.07;;;;;;;;;;5114163;28;20035;-62
2022/06/22 00:38:27;;;;;;;;;;;;;;;;;;5114432;28;20042;-62
2022/06/22 00:40:55;;;;;;;8.50;6.28;;;;;;;;;;5113791;28;19915;-62
2022/06/22 00:43:25;;;;;;;9.45;6.45;;;;;;;;;;5114307;28;20084;-62
2022/06/22 00:45:51;;;;;;;6.60;4.60;;;;;;;;;;5113839;28;20039;-61
2022/06/22 00:48:20;;;;;;;8.50;6.63;;;;;;;;;;5113915;28;20031;-62
2022/06/22 00:50:54;;;;;;;10.10;6.18;;;;;;;;;;5113612;28;20043;-62
2022/06/22 00:53:29;;;;;;;6.43;5.20;;;;;;;;;;5113813;28;20071;-62
2022/06/22 00:56:00;;;;;;;6.00;4.93;;;;;;;;;;5113926;28;20408;-61
2022/06/22 00:58:30;;;;;;;7.60;6.30;;;;;;;;;;5113504;28;20477;-61
2022/06/22 01:01:00;;;;;;;11.23;6.75;;;;;;;;;;5113606;28;20035;-62
2022/06/22 01:03:39;;;;;;;7.45;5.05;;;;;;;;;;5113574;28;20412;-61
2022/06/22 01:06:14;;;;;;;10.38;6.00;;;;;;;;;;5113382;27;20316;-61
2022/06/22 01:08:43;;;;;;;9.48;6.22;;;;;;;;;;5113395;28;20053;-62
2022/06/22 01:14:06;;;;;;;10.18;6.75;;;;;;;;;;5113492;28;20122;-62
2022/06/22 01:16:37;;;;;;;10.52;7.15;;;;;;;;;;5113237;28;20501;-61
2022/06/22 01:19:12;;;;;;;13.85;7.57;;;;;;;;;;5113359;28;20039;-61
2022/06/22 01:21:40;;;;;;;10.90;7.82;;;;;;;;;;5113254;28;20437;-61
2022/06/22 01:24:13;;;;;;;10.23;7.60;;;;;;;;;;5113334;28;20111;-61
2022/06/22 01:26:49;;;;;;;9.23;7.85;;;;;;;;;;5093207;28;20046;-62
2022/06/22 01:29:20;;;;;;;12.05;8.18;;;;;;;;;;5092906;28;20044;-61
2022/06/22 01:31:46;;;;;;;;;;;;;;;;;;5092936;28;20477;-62
2022/06/22 01:34:15;;;;;;;10.95;8.68;;;;;;;;;;5092760;28;19968;-61
2022/06/22 01:36:41;;;;;;;13.90;8.30;;;;;;;;;;5092575;28;20047;-62
2022/06/22 01:39:11;;;;;;;13.18;9.05;;;;;;;;;;5092242;28;20040;-61
2022/06/22 01:41:45;;;;;;;13.35;8.75;;;;;;;;;;5092878;28;20035;-61
2022/06/22 01:44:21;;;;;;;13.43;9.40;;;;;;;;;;5092610;28;20119;-61
2022/06/22 01:47:06;;;;;;;9.43;7.65;;;;;;;;;;5092447;28;20062;-61
2022/06/22 01:49:34;;;;;;;12.10;8.00;;;;;;;;;;5092158;28;20036;-61
2022/06/22 01:52:04;;;;;;;10.10;7.85;;;;;;;;;;5092459;28;20047;-61
2022/06/22 01:54:33;;;;;;;9.32;6.88;;;;;;;;;;5092423;28;20124;-62
2022/06/22 01:57:09;;;;;;;8.93;6.78;;;;;;;;;;5092139;28;20398;-62
2022/06/22 01:59:43;;;;;;;8.98;6.53;;;;;;;;;;5092120;28;20070;-61
2022/06/22 02:02:15;;;;;;;7.68;6.60;;;;;;;;;;5091981;28;20043;-62
2022/06/22 02:04:41;;;;;;;7.93;6.22;;;;;;;;;;5092347;28;20036;-61
2022/06/22 02:10:04;;;;;;;7.43;6.35;;;;;;;;;;5092095;28;20044;-62
2022/06/22 02:12:34;;;;;;;11.63;8.23;;;;;;;;;;5091841;28;20471;-61
2022/06/22 02:15:06;;;;;;;9.90;8.45;;;;;;;;;;5092237;28;20040;-62
2022/06/22 02:17:35;;;;;;;10.43;8.40;;;;;;;;;;5091845;28;20044;-61
2022/06/22 02:20:25;;;;;;;20.05;14.43;;;;;;;;;;5091377;28;20454;-61
2022/06/22 02:22:52;;;;;;;13.48;8.23;;;;;;;;;;5091897;28;20044;-62
2022/06/22 02:25:19;;;;;;;17.85;9.85;;;;;;;;;;5092119;28;20050;-61
2022/06/22 02:27:45;;;;;;;22.23;11.35;;;;;;;;;;5091858;28;20086;-62
2022/06/22 02:30:11;;;;;;;13.40;9.38;;;;;;;;;;5092116;28;20036;-62
2022/06/22 02:32:42;;;;;;;14.93;9.85;;;;;;;;;;5091878;28;20050;-61
2022/06/22 02:35:09;;;;;;;12.38;9.02;;;;;;;;;;5091892;28;20036;-61
2022/06/22 02:37:39;;;;;;;10.73;8.77;;;;;;;;;;5092146;28;20048;-62
2022/06/22 02:40:06;;;;;;;14.77;10.37;;;;;;;;;;5091933;28;20096;-61
2022/06/22 02:45:18;;;;;;;13.05;9.65;;;;;;;;;;5091773;28;20039;-61
2022/06/22 02:47:48;;;;;;;11.98;9.27;;;;;;;;;;5091712;28;20086;-61
2022/06/22 02:50:28;;;;;;;14.35;9.98;;;;;;;;;;5091823;28;20079;-61
2022/06/22 02:52:56;;;;;;;12.15;8.88;;;;;;;;;;5091599;28;20493;-61
2022/06/22 02:55:24;;;;;;;12.98;9.00;;;;;;;;;;5091774;28;20040;-61
2022/06/22 02:57:53;;;;;;;11.02;7.82;;;;;;;;;;5091691;28;20048;-62
2022/06/22 03:00:39;;;;;;;13.00;9.93;;;;;;;;;;5091231;28;20123;-61
2022/06/22 03:03:10;;;;;;;13.18;9.60;;;;;;;;;;5091429;28;20524;-61
2022/06/22 03:05:38;;;;;;;14.77;11.52;;;;;;;;;;5091666;28;20093;-61
2022/06/22 03:08:05;;;;;;;13.07;9.43;;;;;;;;;;5091703;28;20122;-61
2022/06/22 03:10:44;;;;;;;11.85;9.75;;;;;;;;;;5091489;28;20044;-61
2022/06/22 03:13:12;;;;;;;10.48;7.95;;;;;;;;;;5091748;28;20036;-61
2022/06/22 03:15:39;;;;;;;9.98;6.70;;;;;;;;;;5091433;28;20036;-61
2022/06/22 03:18:05;;;;;;;10.05;6.60;;;;;;;;;;5091468;28;20047;-61
2022/06/22 03:20:35;;;;;;;6.80;6.07;;;;;;;;;;5091375;28;20043;-61
2022/06/22 03:23:19;;;;;;;15.63;7.32;;;;;;;;;;5091473;28;20422;-61
2022/06/22 03:25:48;;;;;;;10.55;8.10;;;;;;;;;;5091581;28;20039;-62
2022/06/22 03:28:16;;;;;;;7.60;6.80;;;;;;;;;;5091279;28;20570;-61
2022/06/22 03:30:46;;;;;;;8.23;6.47;;;;;;;;;;5091073;28;20040;-62
2022/06/22 03:33:13;;;;;;;10.15;7.03;;;;;;;;;;5093352;28;20036;-61
2022/06/22 03:35:45;;;;;;;8.27;6.78;;;;;;;;;;5094737;28;20043;-62
2022/06/22 03:38:19;;;;;;;9.10;7.18;;;;;;;;;;5094758;28;20044;-61
2022/06/22 03:40:47;;;;;;;10.15;7.50;;;;;;;;;;5094795;28;20122;-61
2022/06/22 03:43:33;;;;;;;13.80;9.13;;;;;;;;;;5094866;28;20040;-62
2022/06/22 03:46:10;;;;;;;13.13;8.73;;;;;;;;;;5094460;28;20036;-62
2022/06/22 03:48:39;;;;;;;9.73;8.00;;;;;;;;;;5094689;28;20043;-62
2022/06/22 03:51:38;;;;;;;10.85;8.23;;;;;;;;;;5094554;28;20185;-61
2022/06/22 03:54:08;;;;;;;10.48;7.90;;;;;;;;;;5071535;28;20062;-61
2022/06/22 03:56:38;;;;;;;11.48;8.45;;;;;;;;;;5094332;28;20101;-61
2022/06/22 03:59:05;;;;;;;11.60;8.45;;;;;;;;;;5094645;28;20043;-62
2022/06/22 04:01:31;;;;;;;10.70;9.15;;;;;;;;;;5094607;28;20036;-62
2022/06/22 04:03:57;;;;;;;15.20;9.48;;;;;;;;;;5094416;28;20378;-61
2022/06/22 04:06:26;;;;;;;12.77;9.73;;;;;;;;;;5094304;28;20040;-62
2022/06/22 04:08:52;;;;;;;13.35;9.75;;;;;;;;;;5093998;28;20050;-61
2022/06/22 04:11:28;;;;;;;14.23;9.95;;;;;;;;;;5110093;22;20127;-64
2022/06/22 04:14:00;;;;;;;13.98;10.10;;;;;;;;;;5094556;28;20040;-63
2022/06/22 04:16:30;;;;;;;14.00;9.93;;;;;;;;;;5094309;28;20036;-63
2022/06/22 04:18:58;;;;;;;14.33;10.50;;;;;;;;;;5093952;28;20512;-63
2022/06/22 04:21:44;;;;;;;14.32;10.40;;;;;;;;;;5094060;28;20677;-63
2022/06/22 04:24:22;;;;;;;15.50;10.98;;;;;;;;;;5094121;28;20090;-63
2022/06/22 04:26:51;;;;;;;16.92;11.15;;;;;;;;;;5094164;28;20039;-63
2022/06/22 04:29:17;;;;;;;16.95;11.10;;;;;;;;;;5092299;28;20044;-63
2022/06/22 04:31:52;;;;;;;16.52;11.32;;;;;;;;;;5093794;28;20111;-63
2022/06/22 04:34:34;;;;;;;16.13;11.38;;;;;;;;;;5093724;28;20505;-63
2022/06/22 04:37:02;;;;;;;19.75;11.45;;;;;;;;;;5092528;28;20055;-63
2022/06/22 04:39:31;;;;;;;15.60;11.00;;;;;;;;;;5093580;28;20063;-63
2022/06/22 04:41:58;;;;;;;17.02;11.55;;;;;;;;;;5093598;28;20047;-63
2022/06/22 04:44:26;;;;;;;17.10;11.75;;;;;;;;;;5074986;28;20047;-63
2022/06/22 04:46:58;;;;;;;17.27;12.02;;;;;;;;;;5093867;28;20040;-63
2022/06/22 04:49:29;;;;;;;19.77;12.25;;;;;;;;;;5093411;28;20043;-63
2022/06/22 04:51:59;;;;;;;16.60;11.80;;;;;;;;;;5092577;28;20071;-63
2022/06/22 04:54:28;;;;;;;17.95;12.77;;;;;;;;;;5093473;28;20032;-63
2022/06/22 04:56:55;;;;;;;18.13;12.63;;;;;;;;;;5092180;28;20044;-63
2022/06/22 04:59:22;;;;;;;19.50;13.45;;;;;;;;;;5092989;28;20510;-63
2022/06/22 05:01:56;;;;;;;20.80;13.25;;;;;;;;;;5093634;28;20036;-63
2022/06/22 05:04:29;;;;;;;19.02;13.23;;;;;;;;;;5093335;28;20028;-63
2022/06/22 05:07:13;;;;;;;18.25;13.25;;;;;;;;;;5093327;28;20040;-63
2022/06/22 05:09:43;;;;;;;20.55;14.00;;;;;;;;;;5092788;28;20055;-63
2022/06/22 05:12:13;;;;;;;18.30;12.85;;;;;;;;;;5091984;28;20481;-63
2022/06/22 05:14:39;;;;;;;18.05;12.98;;;;;;;;;;5093231;28;20134;-63
2022/06/22 05:17:07;;;;;;;19.45;13.55;;;;;;;;;;5091904;28;20040;-63
2022/06/22 05:20:05;;;;;;;20.50;13.63;;;;;;;;;;5092766;28;20036;-63
2022/06/22 05:22:31;;;;;;;18.25;13.45;;;;;;;;;;5091486;28;20524;-63
2022/06/22 05:24:59;;;;;;;20.23;13.43;;;;;;;;;;5093018;28;20035;-63
2022/06/22 05:27:29;;;;;;;21.45;14.07;;;;;;;;;;5092865;28;20040;-63
2022/06/22 05:29:57;;;;;;;26.30;13.70;;;;;;;;;;5092544;28;20043;-63
2022/06/22 05:32:38;;;;;;;24.80;14.05;;;;;;;;;;5092526;28;20396;-63
2022/06/22 05:35:04;;;;;;;;;;;;;;;;;;5092022;28;20048;-61
2022/06/22 05:37:35;;;;;;;18.83;13.27;;;;;;;;;;5091372;28;20381;-61
2022/06/22 05:40:02;;;;;;;20.77;13.85;;;;;;;;;;5092291;28;20482;-61
2022/06/22 05:42:30;;;;;;;25.00;14.52;;;;;;;;;;5092543;28;20085;-61
2022/06/22 05:44:56;;;;;;;20.08;13.73;;;;;;;;;;5092446;28;20040;-61
2022/06/22 05:47:27;;;;;;;19.35;13.93;;;;;;;;;;5092564;28;20121;-61
2022/06/22 05:50:00;;;;;;;23.10;14.32;;;;;;;;;;5092318;28;20128;-61
2022/06/22 05:52:31;;;;;;;20.92;14.15;;;;;;;;;;5092444;28;20036;-61
2022/06/22 05:55:03;;;;;;;21.20;13.75;;;;;;;;;;5091672;28;20044;-61
2022/06/22 05:57:39;;;;;;;22.80;14.55;;;;;;;;;;5092178;28;20067;-61
2022/06/22 06:00:10;;;;;;;19.27;13.88;;;;;;;;;;5092227;28;20460;-61
2022/06/22 06:02:43;;;;;;;22.05;15.23;;;;;;;;;;5092418;28;20067;-61
2022/06/22 06:05:24;;;;;;;22.20;13.93;;;;;;;;;;5092088;28;20036;-62
2022/06/22 06:07:52;;;;;;;20.27;14.30;;;;;;;;;;5092155;28;20127;-61
2022/06/22 06:10:20;;;;;;;21.42;14.32;;;;;;;;;;5092044;28;20119;-61
2022/06/22 06:12:51;;;;;;;25.55;15.40;;;;;;;;;;5092076;28;20050;-61
2022/06/22 06:15:17;;;;;;;22.85;14.15;;;;;;;;;;5092219;28;20043;-62
2022/06/22 06:17:49;;;;;;;20.33;14.00;;;;;;;;;;5090724;28;20482;-61
2022/06/22 06:20:21;;;;;;;17.60;10.88;;;;;;;;;;5091621;28;20397;-62
2022/06/22 06:22:48;;;;;;;19.02;10.38;;;;;;;;;;5092188;28;20040;-61
2022/06/22 06:28:10;;;;;;;13.20;9.30;;;;;;;;;;5091997;28;20482;-61
2022/06/22 06:30:47;;;;;;;16.17;9.15;;;;;;;;;;5091739;28;20044;-62
2022/06/22 06:33:25;;;;;;;14.80;9.68;;;;;;;;;;5092084;28;20458;-61
2022/06/22 06:35:56;;;;;;;14.57;9.65;;;;;;;;;;5091994;28;20051;-62
2022/06/22 06:38:42;;;;;;;17.38;10.65;;;;;;;;;;5091821;28;20403;-62
2022/06/22 06:41:08;;;;;;;18.83;9.52;;;;;;;;;;5090567;28;20541;-61
2022/06/22 06:43:36;;;;;;;15.75;10.05;;;;;;;;;;5092095;28;20087;-62
2022/06/22 06:46:03;;;;;;;14.48;10.40;;;;;;;;;;5091911;28;20040;-61
2022/06/22 06:48:30;;;;;;;16.60;10.75;;;;;;;;;;5090810;28;20080;-62
2022/06/22 06:50:59;;;;;;;13.77;10.27;;;;;;;;;;5090504;28;20036;-62
2022/06/22 06:53:28;;;;;;;14.77;10.05;;;;;;;;;;5091831;28;20044;-62
2022/06/22 06:56:01;;;;;;;13.90;8.88;;;;;;;;;;5091583;28;20044;-62
2022/06/22 06:58:31;;;;;;;10.73;7.75;;;;;;;;;;5091775;28;20093;-62
2022/06/22 07:00:57;;;;;;;17.67;10.00;;;;;;;;;;5090408;28;20044;-62
2022/06/22 07:03:25;;;;;;;14.32;9.38;;;;;;;;;;5091671;28;20067;-62
2022/06/22 07:05:52;;;;;;;13.40;9.13;;;;;;;;;;5091506;28;20489;-62
2022/06/22 07:08:19;;;;;;;12.38;8.50;;;;;;;;;;5095452;28;20421;-62
2022/06/22 07:11:14;;;;;;;11.88;7.45;;;;;;;;;;5095109;28;20425;-62
2022/06/22 07:13:51;;;;;;;10.63;6.45;;;;;;;;;;5090714;28;20073;-62
2022/06/22 07:16:20;;;;;;;12.23;6.03;;;;;;;;;;5095410;28;20044;-62
2022/06/22 07:18:52;;;;;;;9.48;5.60;;;;;;;;;;5093700;28;20504;-62
2022/06/22 07:21:23;;;;;;;10.63;6.53;;;;;;;;;;5095556;28;20032;-62
2022/06/22 07:23:55;;;;;;;8.70;6.10;;;;;;;;;;5095416;28;20047;-62
2022/06/22 07:26:38;;;;;;;8.27;5.32;;;;;;;;;;5093852;28;20040;-62
2022/06/22 07:29:10;;;;;;;12.40;6.78;;;;;;;;;;5094738;28;20472;-62
2022/06/22 07:31:59;;;;;;;7.75;5.75;;;;;;;;;;5094931;28;20047;-62
2022/06/22 07:34:29;;;;;;;6.28;5.13;;;;;;;;;;5093833;28;20166;-62
2022/06/22 07:36:58;;;;;;;7.80;5.10;;;;;;;;;;5093841;28;20130;-62
2022/06/22 07:39:36;;;;;;;8.57;5.80;;;;;;;;;;5094595;28;20120;-62
2022/06/22 07:42:03;;;;;;;5.57;3.05;;;;;;;;;;5095026;28;20389;-62
2022/06/22 07:44:32;;;;;;;3.78;3.00;;;;;;;;;;5095035;28;20036;-62
2022/06/22 07:47:12;;;;;;;3.72;2.60;;;;;;;;;;5094861;28;20036;-62
2022/06/22 07:49:40;;;;;;;6.53;3.20;;;;;;;;;;5094634;28;20040;-62
2022/06/22 07:52:11;;;;;;;5.93;3.75;;;;;;;;;;5093128;28;20042;-62
2022/06/22 07:54:37;;;;;;;4.97;3.50;;;;;;;;;;5093384;28;20039;-62
2022/06/22 07:57:12;;;;;;;5.35;3.42;;;;;;;;;;5094625;28;20089;-62
2022/06/22 07:59:41;;;;;;;4.50;3.45;;;;;;;;;;5094469;28;20036;-62
2022/06/22 08:02:14;;;;;;;4.07;2.75;;;;;;;;;;5094300;28;20478;-62
2022/06/22 08:04:44;;;;;;;4.65;2.80;;;;;;;;;;5094639;28;20420;-62
2022/06/22 08:07:12;;;;;;;3.15;2.60;;;;;;;;;;5094547;28;20040;-62
2022/06/22 08:09:44;;;;;;;2.97;2.15;;;;;;;;;;5094260;28;20397;-62
2022/06/22 08:12:14;;;;;;;3.67;2.30;;;;;;;;;;5094163;28;20047;-62
2022/06/22 08:14:48;;;;;;;3.05;2.20;;;;;;;;;;5094351;28;20092;-62
2022/06/22 08:17:18;;;;;;;2.65;1.70;;;;;;;;;;5093960;28;20055;-61
2022/06/22 08:19:44;;;;;;;5.55;2.60;;;;;;;;;;5091976;28;20088;-61
2022/06/22 08:22:11;;;;;;;3.45;2.47;;;;;;;;;;5094034;28;20044;-62
2022/06/22 08:24:40;;;;;;;3.05;2.22;;;;;;;;;;5093086;28;20070;-62
2022/06/22 08:27:09;;;;;;;3.92;2.58;;;;;;;;;;5093978;28;20051;-62
2022/06/22 08:29:35;;;;;;;4.00;2.30;;;;;;;;;;5093605;28;20047;-62
2022/06/22 08:32:07;;;;;;;3.45;2.90;;;;;;;;;;5094139;28;20044;-62
2022/06/22 08:34:35;;;;;;;6.00;2.50;;;;;;;;;;5094026;28;20040;-62
2022/06/22 08:37:06;;;;;;;4.25;2.20;;;;;;;;;;5093731;28;20040;-62
2022/06/22 08:39:32;;;;;;;6.30;2.50;;;;;;;;;;5092574;28;20054;-62
2022/06/22 08:42:04;;;;;;;3.30;1.98;;;;;;;;;;5093449;28;20040;-62
2022/06/22 08:44:50;;;;;;;5.13;2.53;;;;;;;;;;5092792;28;20036;-62
2022/06/22 08:47:19;;;;;;;3.55;2.15;;;;;;;;;;5089555;28;20052;-62
2022/06/22 08:50:04;;;;;;;5.95;3.55;;;;;;;;;;5093353;28;20454;-62
2022/06/22 08:52:40;;;;;;;6.22;2.63;;;;;;;;;;5092225;28;20043;-62
2022/06/22 08:55:15;;;;;;;4.10;2.60;;;;;;;;;;5093862;28;20044;-62
2022/06/22 08:57:49;;;;;;;4.57;2.42;;;;;;;;;;5093431;28;20166;-62
2022/06/22 09:00:20;;;;;;;5.25;2.60;;;;;;;;;;5093200;28;20039;-62
2022/06/22 09:03:05;;;;;;;3.85;2.67;;;;;;;;;;5093127;28;20043;-62
2022/06/22 09:05:34;;;;;;;6.68;2.22;;;;;;;;;;5093481;28;20042;-62
2022/06/22 09:08:03;;;;;;;3.95;2.42;;;;;;;;;;5093357;28;20047;-62
2022/06/22 09:10:29;;;;;;;3.75;2.38;;;;;;;;;;5093062;28;20044;-62
2022/06/22 09:13:16;;;;;;;5.55;2.17;;;;;;;;;;5092958;28;20043;-62
2022/06/22 09:16:05;;;;;;;4.15;2.40;;;;;;;;;;5081646;28;20105;-62
2022/06/22 09:18:34;;;;;;;3.10;1.90;;;;;;;;;;5072432;28;20125;-62
2022/06/22 09:21:03;;;;;;;5.00;2.55;;;;;;;;;;5092889;28;20039;-62
2022/06/22 09:23:45;;;;;;;4.10;2.45;;;;;;;;;;5091655;28;20059;-62
2022/06/22 09:26:20;;;;;;;4.63;2.90;;;;;;;;;;5093256;28;20040;-62
2022/06/22 09:28:46;;;;;;;5.53;2.65;;;;;;;;;;5092790;28;20036;-62
2022/06/22 09:31:19;;;;;;;5.65;2.65;;;;;;;;;;5092622;28;20040;-62
2022/06/22 09:34:04;;;;;;;4.43;2.05;;;;;;;;;;5092867;28;20040;-62
2022/06/22 09:36:39;;;;;;;6.20;1.95;;;;;;;;;;5092794;28;20075;-62
2022/06/22 09:39:23;;;;;;;2.97;2.10;;;;;;;;;;5092562;28;20044;-62
2022/06/22 09:41:55;;;;;;;3.15;2.10;;;;;;;;;;5091133;28;20055;-62
2022/06/22 09:44:33;;;;;;;4.38;2.28;;;;;;;;;;5092594;28;20073;-62
2022/06/22 09:47:23;;;;;;;5.43;2.15;;;;;;;;;;5092735;28;20078;-62
2022/06/22 09:50:07;;;;;;;4.68;2.50;;;;;;;;;;5092228;28;20485;-62
2022/06/22 09:52:39;;;;;;;3.22;1.88;;;;;;;;;;5092277;28;20432;-62
2022/06/22 09:58:08;;;;;;;2.65;2.05;;;;;;;;;;5092424;28;20048;-62
2022/06/22 10:00:48;;;;;;;5.05;2.30;;;;;;;;;;5092218;28;20040;-62
2022/06/22 10:03:22;;;;;;;4.53;2.40;;;;;;;;;;5092108;28;20493;-62
2022/06/22 10:05:54;;;;;;;2.53;1.50;;;;;;;;;;5092481;28;20040;-62
2022/06/22 10:08:20;;;;;;;2.92;1.65;;;;;;;;;;5092048;28;20048;-62
2022/06/22 10:10:46;;;;;;;3.08;1.67;;;;;;;;;;5092095;28;20474;-62
2022/06/22 10:13:22;;;;;;;3.60;1.88;;;;;;;;;;5092013;28;20040;-62
2022/06/22 10:16:05;;;;;;;3.05;1.75;;;;;;;;;;5092049;28;20074;-62
2022/06/22 10:19:04;;;;;;;4.95;1.65;;;;;;;;;;5091897;28;20048;-62
2022/06/22 10:21:45;;;;;;;3.42;1.55;;;;;;;;;;5068276;28;20055;-62
2022/06/22 10:24:11;;;;;;;;;;;;;;;;;;5092437;28;20040;-63
2022/06/22 10:27:09;;;;;;;2.50;1.50;;;;;;;;;;5092247;28;20289;-62
2022/06/22 10:29:59;;;;;;;2.15;1.60;;;;;;;;;;5072301;28;20084;-62
2022/06/22 10:32:44;;;;;;;5.23;1.70;;;;;;;;;;5091766;28;20043;-62
2022/06/22 10:35:13;;;;;;;3.35;1.85;;;;;;;;;;5090724;28;20096;-62
2022/06/22 10:37:57;;;;;;;3.20;1.75;;;;;;;;;;5090543;28;20123;-62
2022/06/22 10:46:12;;;;;;;1.65;1.20;;;;;;;;;;5096186;28;20163;-62
2022/06/22 10:48:38;;;;;;;2.65;1.50;;;;;;;;;;5094518;28;20393;-62
2022/06/22 10:51:10;;;;;;;3.70;1.65;;;;;;;;;;5095843;28;20040;-63
2022/06/22 10:53:52;;;;;;;4.35;1.80;;;;;;;;;;5096016;28;20040;-62
2022/06/22 10:56:28;;;;;;;4.15;1.73;;;;;;;;;;5094580;28;20044;-62
2022/06/22 10:59:12;;;;;;;3.90;1.60;;;;;;;;;;5094134;28;20040;-62
2022/06/22 11:02:01;;;;;;;3.47;1.90;;;;;;;;;;5095568;28;20061;-62
2022/06/22 11:04:46;;;;;;;3.85;1.80;;;;;;;;;;5084948;28;20409;-62
2022/06/22 11:07:31;;;;;;;2.45;1.50;;;;;;;;;;5094545;28;20051;-62
2022/06/22 11:10:16;;;;;;;2.58;1.30;;;;;;;;;;5095295;28;20048;-62
2022/06/22 11:12:54;;;;;;;2.63;1.42;;;;;;;;;;5095412;28;20179;-62
2022/06/22 11:15:33;;;;;;;3.28;1.75;;;;;;;;;;5095542;28;20537;-62
2022/06/22 11:18:17;;;;;;;3.22;1.40;;;;;;;;;;5095338;28;20119;-62
2022/06/22 11:20:54;;;;;;;2.60;1.42;;;;;;;;;;5095283;28;20062;-62
2022/06/22 11:23:43;;;;;;;3.53;1.20;;;;;;;;;;5095326;28;20147;-62
2022/06/22 11:31:50;;;;;;;2.58;1.00;;;;;;;;;;5095263;28;20123;-62
2022/06/22 11:34:29;;;;;;;1.42;1.15;;;;;;;;;;5095037;28;20040;-62
2022/06/22 11:37:08;;;;;;;83.72;7.63;;;;;;;;;;5093863;28;20416;-63
2022/06/22 11:39:44;;;;;;;1.92;1.10;;;;;;;;;;5094837;28;20032;-62
2022/06/22 11:42:20;;;;;;;4.63;1.70;;;;;;;;;;5095075;28;20128;-62
2022/06/22 11:47:52;;;;;;;2.85;1.20;;;;;;;;;;5095020;28;20044;-63
2022/06/22 11:50:25;;;;;;;4.80;1.60;;;;;;;;;;5094712;28;20044;-62
2022/06/22 11:52:51;;;;;;;3.25;1.45;;;;;;;;;;5093617;28;20040;-62
2022/06/22 11:55:28;;;;;;;3.05;1.38;;;;;;;;;;5094530;28;20094;-62
2022/06/22 11:58:13;;;;;;;3.28;1.33;;;;;;;;;;5094458;28;20047;-62
2022/06/22 12:00:55;;;;;;;2.13;1.30;;;;;;;;;;5093127;28;20044;-63
2022/06/22 12:03:32;;;;;;;3.17;1.55;;;;;;;;;;5094405;28;20036;-62
2022/06/22 12:06:04;;;;;;;3.30;1.50;;;;;;;;;;5094561;28;20047;-62
2022/06/22 12:08:55;;;;;;;2.65;1.50;;;;;;;;;;5094309;28;20051;-63
2022/06/22 12:11:40;;;;;;;2.97;1.48;;;;;;;;;;5094286;28;20072;-63
2022/06/22 12:16:50;;;;;;;2.55;1.38;;;;;;;;;;5094443;28;20127;-62
2022/06/22 12:19:18;;;;;;;2.70;1.73;;;;;;;;;;5094082;28;20467;-62
2022/06/22 12:21:59;;;;;;;3.30;1.17;;;;;;;;;;5094246;28;20064;-62
2022/06/22 12:24:44;;;;;;;4.85;1.60;;;;;;;;;;5094140;28;20032;-63
2022/06/22 12:27:17;;;;;;;3.80;1.67;;;;;;;;;;5093986;28;20123;-63
2022/06/22 12:29:43;;;;;;;2.70;1.40;;;;;;;;;;5093949;28;20374;-62
2022/06/22 12:32:14;;;;;;;3.55;1.50;;;;;;;;;;5094047;28;20127;-63
2022/06/22 12:35:04;;;;;;;1.90;1.20;;;;;;;;;;5093885;28;20036;-62
2022/06/22 12:37:33;;;;;;;2.33;1.20;;;;;;;;;;5092407;28;20052;-62
2022/06/22 12:40:03;;;;;;;2.88;1.35;;;;;;;;;;5093679;28;20040;-62
2022/06/22 12:42:38;;;;;;;2.13;1.33;;;;;;;;;;5093899;28;20068;-62
2022/06/22 12:45:07;;;;;;;3.45;1.35;;;;;;;;;;5093625;28;20478;-63
2022/06/22 12:47:33;;;;;;;4.47;1.50;;;;;;;;;;5093697;28;20382;-62
2022/06/22 12:50:11;;;;;;;5.05;1.50;;;;;;;;;;5091990;28;20457;-62
2022/06/22 12:52:41;;;;;;;3.28;1.58;;;;;;;;;;5093760;28;20048;-62
2022/06/22 12:55:11;;;;;;;2.65;1.38;;;;;;;;;;5093596;28;20044;-63
2022/06/22 12:57:44;;;;;;;2.22;1.20;;;;;;;;;;5093509;28;20048;-63
2022/06/22 13:00:14;;;;;;;2.47;1.25;;;;;;;;;;5093089;28;20421;-62
2022/06/22 13:02:41;;;;;;;1.98;1.30;;;;;;;;;;5093586;28;20169;-63
2022/06/22 13:05:12;;;;;;;3.45;1.55;;;;;;;;;;5093137;28;20544;-62
2022/06/22 13:07:43;;;;;;;2.53;0.85;;;;;;;;;;5092334;28;20040;-63
2022/06/22 13:10:09;;;;;;;;;;;;;;;;;;5092316;28;20484;-63
2022/06/22 13:12:38;;;;;;;2.08;1.13;;;;;;;;;;5093111;28;20006;-63
2022/06/22 13:15:17;;;;;;;2.97;0.98;;;;;;;;;;5091764;28;20040;-63
2022/06/22 13:17:54;;;;;;;2.25;1.13;;;;;;;;;;5093127;28;20048;-63
2022/06/22 13:20:34;;;;;;;2.80;1.13;;;;;;;;;;5092879;28;20078;-63
2022/06/22 13:23:19;;;;;;;3.90;1.40;;;;;;;;;;5093149;28;20430;-63
2022/06/22 13:25:52;;;;;;;2.15;1.30;;;;;;;;;;5093102;28;20119;-63
2022/06/22 13:28:21;;;;;;;2.47;1.30;;;;;;;;;;5093071;28;20059;-63
2022/06/22 13:30:48;;;;;;;1.98;1.10;;;;;;;;;;5092612;28;20040;-63
2022/06/22 13:33:22;;;;;;;1.65;1.05;;;;;;;;;;5092759;28;20104;-63
2022/06/22 13:36:01;;;;;;;3.08;1.30;;;;;;;;;;5092612;28;20073;-62
2022/06/22 13:38:39;;;;;;;2.40;1.25;;;;;;;;;;5092790;28;20040;-63
2022/06/22 13:41:29;;;;;;;2.45;1.00;;;;;;;;;;5091535;28;20036;-63
2022/06/22 13:43:58;;;;;;;2.10;1.10;;;;;;;;;;5089633;28;20512;-63
2022/06/22 13:46:31;;;;;;;3.22;1.08;;;;;;;;;;5092698;28;20085;-63
2022/06/22 13:49:05;;;;;;;3.78;1.45;;;;;;;;;;5092536;28;20051;-63
2022/06/22 13:51:35;;;;;;;7.18;1.50;;;;;;;;;;5091318;28;20052;-63
2022/06/22 13:54:12;;;;;;;3.47;1.50;;;;;;;;;;5092561;28;20051;-63
2022/06/22 13:56:54;;;;;;;2.80;1.40;;;;;;;;;;5092230;28;20036;-63
2022/06/22 13:59:20;;;;;;;3.63;1.27;;;;;;;;;;5092284;28;20408;-63
2022/06/22 14:01:50;;;;;;;1.92;1.35;;;;;;;;;;5092344;28;20044;-63
2022/06/22 14:04:19;;;;;;;3.92;1.52;;;;;;;;;;5092433;28;20046;-63
2022/06/22 14:06:52;;;;;;;2.72;1.10;;;;;;;;;;5090951;28;20117;-62
2022/06/22 14:09:26;;;;;;;4.05;1.20;;;;;;;;;;5092165;28;20440;-62
2022/06/22 14:12:02;;;;;;;2.70;1.33;;;;;;;;;;5092145;28;20035;-63
2022/06/22 14:14:33;;;;;;;5.43;1.65;;;;;;;;;;5091335;28;20043;-62
2022/06/22 14:17:03;;;;;;;3.05;1.38;;;;;;;;;;5091354;28;20075;-63
2022/06/22 14:19:33;;;;;;;2.47;1.50;;;;;;;;;;5091879;28;20068;-62
2022/06/22 14:22:00;;;;;;;2.00;1.40;;;;;;;;;;5092239;28;20093;-63
2022/06/22 14:24:32;;;;;;;5.00;1.95;;;;;;;;;;5092096;28;20482;-63
2022/06/22 14:27:04;;;;;;;3.45;1.58;;;;;;;;;;5090984;28;20071;-63
2022/06/22 14:29:42;;;;;;;1.75;1.38;;;;;;;;;;5091799;28;20040;-63
2022/06/22 14:32:08;;;;;;;2.97;1.65;;;;;;;;;;5091746;28;20115;-62
2022/06/22 14:34:49;;;;;;;4.43;1.90;;;;;;;;;;5092229;28;20070;-62
2022/06/22 14:37:25;;;;;;;3.17;1.63;;;;;;;;;;5091843;28;20036;-62
2022/06/22 14:40:26;;;;;;;2.38;1.45;;;;;;;;;;5091769;28;20036;-62
2022/06/22 14:43:04;;;;;;;6.35;1.70;;;;;;;;;;5069302;28;20079;-62
2022/06/22 14:45:36;;;;;;;3.05;2.00;;;;;;;;;;5089093;28;20055;-63
2022/06/22 14:48:18;;;;;;;3.42;1.60;;;;;;;;;;5091937;28;20178;-63
2022/06/22 14:50:50;;;;;;;3.50;1.80;;;;;;;;;;5091462;28;20047;-62
2022/06/22 14:53:16;;;;;;;2.05;1.52;;;;;;;;;;5091777;28;20070;-62
2022/06/22 14:55:45;;;;;;;3.08;1.42;;;;;;;;;;5091863;28;20432;-62
2022/06/22 14:58:15;;;;;;;2.33;1.77;;;;;;;;;;5091605;28;20070;-63
2022/06/22 15:00:41;;;;;;;;;;;;;;;;;;5091961;28;20040;-63
2022/06/22 15:03:18;;;;;;;2.60;1.77;;;;;;;;;;5090388;28;19923;-62
2022/06/22 15:05:50;;;;;;;5.03;1.75;;;;;;;;;;5090644;28;20119;-63
2022/06/22 15:08:27;;;;;;;3.13;1.80;;;;;;;;;;5090359;28;20043;-62
2022/06/22 15:12:56;;;;;;;3.53;1.92;;;;;;;;;;5091580;28;20051;-63
2022/06/22 15:13:58;;;;;;;2.42;1.42;;;;;;;;;;5091392;28;20044;-62
2022/06/22 15:16:27;;;;;;;5.75;1.67;;;;;;;;;;5091806;28;20040;-62
2022/06/22 15:18:56;;;;;;;3.35;1.60;;;;;;;;;;5091467;28;20470;-62
2022/06/22 15:21:25;;;;;;;1.80;1.60;;;;;;;;;;5091447;28;20047;-63
2022/06/22 15:23:54;;;;;;;2.25;1.90;;;;;;;;;;5091571;28;20044;-62
2022/06/22 15:26:38;;;;;;;3.45;1.80;;;;;;;;;;5091324;28;20051;-62
2022/06/22 15:29:25;;;;;;;2.97;2.10;;;;;;;;;;5094715;28;20083;-62
2022/06/22 15:31:52;;;;;;;4.00;2.25;;;;;;;;;;5095043;28;20036;-63
2022/06/22 15:34:24;;;;;;;4.45;1.92;;;;;;;;;;5095134;28;20040;-63
2022/06/22 15:37:11;;;;;;;2.88;1.95;;;;;;;;;;5094934;28;20489;-63
2022/06/22 15:39:40;;;;;;;5.40;2.20;;;;;;;;;;5091147;28;20078;-62
2022/06/22 15:42:15;;;;;;;4.30;2.10;;;;;;;;;;5094875;28;20078;-63
2022/06/22 15:44:44;;;;;;;4.68;1.80;;;;;;;;;;5093695;28;20069;-63
2022/06/22 15:47:33;;;;;;;5.00;2.30;;;;;;;;;;5094704;28;20317;-62